Time;durP1;ratioP1;P1;durP2;ratioP2;P2;SDS_P1;SDS_P2;PMS_P1;PMS_P2;Temp;Humidity;BMP_temperature;BMP_pressure;BME280_temperature;BME280_humidity;BME280_pressure;Samples;Min_cycle;Max_cycle;Signal;HPM_P1;HPM_P2
2021/03/25 00:02:15;;;;;;;8.55;5.37;;;;;;;2.14;93.10;100902.28;2573723;55;20627;-74
2021/03/25 00:04:50;;;;;;;9.82;4.87;;;;;;;2.07;92.93;100886.72;2570584;55;20496;-74
2021/03/25 00:07:18;;;;;;;10.52;5.15;;;;;;;2.08;92.59;100896.31;2570430;55;20114;-73
2021/03/25 00:09:48;;;;;;;10.63;5.55;;;;;;;2.07;93.00;100899.03;2573649;55;20113;-74
2021/03/25 00:12:17;;;;;;;8.02;5.10;;;;;;;2.04;92.63;100878.94;2570177;55;20132;-73
2021/03/25 00:14:46;;;;;;;10.98;5.55;;;;;;;1.98;93.03;100889.69;2571573;55;20122;-74
2021/03/25 00:17:14;;;;;;;9.27;5.25;;;;;;;2.00;92.97;100890.47;2571420;55;20519;-74
2021/03/25 00:19:43;;;;;;;12.32;5.80;;;;;;;1.97;93.25;100893.22;2571614;55;20121;-74
2021/03/25 00:22:13;;;;;;;10.30;5.87;;;;;;;1.99;93.92;100901.91;2572180;55;20133;-74
2021/03/25 00:24:41;;;;;;;10.98;5.15;;;;;;;1.97;93.60;100893.22;2572498;55;20110;-74
2021/03/25 00:27:09;;;;;;;8.15;4.75;;;;;;;1.94;93.46;100896.81;2572248;55;20117;-74
2021/03/25 00:29:42;;;;;;;9.50;5.32;;;;;;;2.01;93.59;100899.25;2571358;55;20118;-74
2021/03/25 00:32:11;;;;;;;10.85;6.00;;;;;;;1.95;93.08;100889.81;2571415;55;20616;-73
2021/03/25 00:34:42;;;;;;;9.98;6.03;;;;;;;2.00;94.18;100898.37;2571719;55;20661;-74
2021/03/25 00:37:09;;;;;;;11.23;5.82;;;;;;;2.01;93.92;100893.97;2572007;55;20121;-73
2021/03/25 00:39:38;;;;;;;9.35;5.47;;;;;;;2.00;93.31;100890.47;2571701;55;20527;-73
2021/03/25 00:42:14;;;;;;;13.07;6.35;;;;;;;2.03;93.31;100903.53;2571167;55;20140;-73
2021/03/25 00:44:45;;;;;;;12.18;5.93;;;;;;;1.99;93.33;100882.66;2571494;55;20709;-73
2021/03/25 00:47:12;;;;;;;8.63;5.55;;;;;;;2.01;94.41;100891.34;2571536;55;20132;-74
2021/03/25 00:49:43;;;;;;;9.70;5.55;;;;;;;2.03;93.78;100886.88;2571854;55;20135;-73
2021/03/25 00:52:11;;;;;;;9.48;6.37;;;;;;;2.04;93.71;100889.47;2571819;55;20638;-74
2021/03/25 00:54:40;;;;;;;12.85;7.35;;;;;;;2.00;93.72;100885.22;2572272;55;20493;-74
2021/03/25 00:57:08;;;;;;;10.68;6.68;;;;;;;2.06;93.15;100900.78;2572220;55;20136;-74
2021/03/25 00:59:36;;;;;;;14.40;6.32;;;;;;;2.06;92.98;100887.63;2571725;55;20140;-73
2021/03/25 01:02:09;;;;;;;15.07;6.70;;;;;;;2.09;93.57;100886.66;2571262;55;20137;-74
2021/03/25 01:04:38;;;;;;;12.25;5.90;;;;;;;2.08;93.57;100891.06;2572525;55;20121;-74
2021/03/25 01:10:53;;;;;;;11.85;6.68;;;;;;;2.07;94.12;100884.06;2571468;55;20150;-74
2021/03/25 01:13:28;;;;;;;11.55;6.03;;;;;;;1.98;93.90;100873.88;2572622;55;20119;-74
2021/03/25 01:16:00;;;;;;;12.95;6.93;;;;;;;2.04;93.54;100884.19;2571117;55;20552;-73
2021/03/25 01:18:31;;;;;;;14.43;8.13;;;;;;;2.06;94.40;100886.78;2571681;55;20131;-74
2021/03/25 01:21:05;;;;;;;14.68;7.55;;;;;;;2.11;94.25;100890.09;2571543;55;20503;-73
2021/03/25 01:23:37;;;;;;;15.55;7.32;;;;;;;2.08;93.89;100885.78;2571649;55;20144;-74
2021/03/25 01:26:04;;;;;;;14.27;7.32;;;;;;;2.09;93.59;100876.97;2571349;55;20113;-73
2021/03/25 01:28:34;;;;;;;13.90;7.65;;;;;;;2.07;93.91;100872.72;2572041;55;20129;-73
2021/03/25 01:31:07;;;;;;;16.37;8.53;;;;;;;2.07;94.05;100870.06;2571214;55;20132;-73
2021/03/25 01:33:38;;;;;;;14.55;8.48;;;;;;;2.08;93.74;100877.91;2571638;55;20129;-74
2021/03/25 01:36:16;;;;;;;16.60;8.85;;;;;;;2.05;93.71;100867.50;2571858;55;20804;-73
2021/03/25 01:38:46;;;;;;;14.48;7.75;;;;;;;2.12;94.05;100880.44;2571826;55;20123;-74
2021/03/25 01:41:19;;;;;;;14.90;8.00;;;;;;;2.08;94.79;100874.41;2571356;55;20136;-74
2021/03/25 01:43:53;;;;;;;17.25;8.45;;;;;;;2.08;94.37;100870.00;2571878;55;20110;-73
2021/03/25 01:46:25;;;;;;;15.45;7.87;;;;;;;2.07;94.48;100876.19;2572211;55;20719;-73
2021/03/25 01:49:03;;;;;;;18.48;7.97;;;;;;;2.13;94.37;100877.72;2571745;55;20625;-74
2021/03/25 01:51:54;;;;;;;18.10;7.97;;;;;;;2.08;94.72;100867.37;2576139;55;20642;-74
2021/03/25 01:55:06;;;;;;;14.77;8.13;;;;;;;2.15;93.91;100875.03;2577346;55;20144;-74
2021/03/25 01:58:20;;;;;;;12.75;7.12;;;;;;;2.08;94.64;100864.72;2555850;56;20140;-74
2021/03/25 02:00:55;;;;;;;15.85;7.72;;;;;;;2.05;94.50;100854.31;2558480;56;20121;-74
2021/03/25 02:03:55;;;;;;;13.75;7.10;;;;;;;2.10;94.51;100872.59;2570806;55;20124;-73
2021/03/25 02:06:34;;;;;;;12.77;6.20;;;;;;;2.06;94.69;100869.19;2571741;55;20126;-73
2021/03/25 02:09:15;;;;;;;15.15;7.53;;;;;;;2.05;95.16;100864.00;2572406;55;20511;-73
2021/03/25 02:11:55;;;;;;;12.23;5.82;;;;;;;2.01;95.00;100857.13;2572153;55;20117;-73
2021/03/25 02:14:35;;;;;;;13.02;6.20;;;;;;;2.05;95.11;100859.59;2572122;55;20124;-74
2021/03/25 02:17:12;;;;;;;16.67;7.22;;;;;;;2.05;94.99;100867.50;2577152;55;20136;-73
2021/03/25 02:20:16;;;;;;;15.93;6.68;;;;;;;2.06;94.75;100863.09;2577155;55;20114;-73
2021/03/25 02:23:15;;;;;;;12.93;7.00;;;;;;;2.00;95.13;100866.78;2572111;55;20513;-73
2021/03/25 02:25:52;;;;;;;14.18;7.72;;;;;;;2.04;94.83;100865.78;2572074;55;20128;-73
2021/03/25 02:28:49;;;;;;;15.30;7.05;;;;;;;2.04;95.71;100862.28;2577506;55;20116;-73
2021/03/25 02:31:24;;;;;;;13.65;6.68;;;;;;;1.96;95.50;100853.81;2571904;55;20105;-73
2021/03/25 02:33:58;;;;;;;14.38;7.65;;;;;;;2.02;95.14;100864.97;2577199;55;20227;-74
2021/03/25 02:36:38;;;;;;;11.55;6.60;;;;;;;2.01;95.53;100858.00;2576838;55;20125;-74
2021/03/25 02:39:11;;;;;;;13.93;7.10;;;;;;;1.98;95.18;100868.63;2572028;55;20144;-73
2021/03/25 02:41:45;;;;;;;15.70;7.80;;;;;;;1.97;95.20;100864.28;2577021;55;20641;-74
2021/03/25 02:44:24;;;;;;;14.27;6.57;;;;;;;2.02;94.96;100859.72;2572169;55;20704;-74
2021/03/25 02:47:00;;;;;;;11.35;7.12;;;;;;;1.89;95.81;100856.66;2571926;55;20663;-74
2021/03/25 02:49:32;;;;;;;12.93;7.93;;;;;;;1.91;95.77;100854.00;2572108;55;20113;-74
2021/03/25 02:52:12;;;;;;;16.67;6.80;;;;;;;1.91;96.01;100862.72;2571771;55;20504;-73
2021/03/25 02:54:42;;;;;;;13.95;7.28;;;;;;;1.89;96.22;100858.44;2572195;55;20547;-73
2021/03/25 02:57:19;;;;;;;16.40;8.73;;;;;;;1.94;96.64;100861.78;2576850;55;20105;-74
2021/03/25 02:59:51;;;;;;;13.65;6.93;;;;;;;1.90;96.22;100854.88;2577417;55;20133;-74
2021/03/25 03:02:30;;;;;;;14.93;8.52;;;;;;;1.88;96.68;100851.47;2571940;55;20649;-74
2021/03/25 03:05:05;;;;;;;18.55;8.65;;;;;;;1.93;96.18;100857.41;2572013;55;20519;-74
2021/03/25 03:07:44;;;;;;;17.33;8.73;;;;;;;1.92;96.80;100853.91;2571654;55;20125;-74
2021/03/25 03:10:27;;;;;;;14.38;7.60;;;;;;;1.87;96.03;100841.84;2572208;55;20507;-73
2021/03/25 03:12:58;;;;;;;16.50;8.13;;;;;;;1.98;96.65;100849.34;2571783;55;20121;-73
2021/03/25 03:15:28;;;;;;;19.30;9.37;;;;;;;1.98;96.26;100852.84;2571888;55;20144;-74
2021/03/25 03:18:04;;;;;;;14.65;8.45;;;;;;;1.99;96.54;100846.66;2572218;55;20128;-74
2021/03/25 03:20:43;;;;;;;15.93;8.57;;;;;;;1.99;96.68;100854.53;2576617;55;20492;-74
2021/03/25 03:23:15;;;;;;;16.35;8.48;;;;;;;1.96;96.99;100846.78;2577279;55;20709;-73
2021/03/25 03:25:47;;;;;;;16.60;9.05;;;;;;;1.95;96.47;100847.69;2571976;55;20116;-74
2021/03/25 03:28:24;;;;;;;16.92;9.50;;;;;;;2.01;97.04;100842.22;2576786;55;20621;-74
2021/03/25 03:31:02;;;;;;;21.75;10.80;;;;;;;1.98;96.32;100839.66;2571982;55;20499;-73
2021/03/25 03:33:37;;;;;;;22.95;12.57;;;;;;;2.01;96.95;100842.22;2572412;55;20125;-74
2021/03/25 03:36:11;;;;;;;19.65;10.30;;;;;;;1.96;97.44;100836.25;2572494;55;20121;-73
2021/03/25 03:38:44;;;;;;;20.40;9.50;;;;;;;1.99;96.95;100841.38;2578219;55;20113;-73
2021/03/25 03:41:25;;;;;;;25.90;10.90;;;;;;;1.96;97.60;100832.78;2577829;55;20568;-73
2021/03/25 03:43:58;;;;;;;17.98;10.30;;;;;;;2.00;97.27;100839.63;2572104;55;20125;-73
2021/03/25 03:46:27;;;;;;;;;;;;;;;2.06;95.94;100842.88;2577990;55;20221;-72
2021/03/25 03:49:07;;;;;;;18.60;9.87;;;;;;;2.01;96.66;100841.34;2578043;55;20442;-74
2021/03/25 03:51:43;;;;;;;16.37;8.55;;;;;;;1.97;97.53;100837.97;2577657;55;20136;-73
2021/03/25 03:54:14;;;;;;;17.17;9.13;;;;;;;1.96;97.68;100830.13;2572817;55;20117;-73
2021/03/25 03:56:56;;;;;;;18.77;8.95;;;;;;;2.01;96.64;100841.34;2572084;55;20113;-74
2021/03/25 03:59:37;;;;;;;16.12;9.10;;;;;;;1.98;97.18;100844.09;2578141;55;20109;-73
2021/03/25 04:02:14;;;;;;;15.85;9.45;;;;;;;2.01;97.19;100852.75;2572506;55;20630;-73
2021/03/25 04:04:49;;;;;;;17.15;9.00;;;;;;;2.00;97.01;100856.25;2577711;55;20109;-74
2021/03/25 04:07:29;;;;;;;21.30;8.82;;;;;;;2.00;97.59;100848.38;2572761;55;20121;-74
2021/03/25 04:10:13;;;;;;;14.43;8.20;;;;;;;2.06;96.87;100850.78;2572774;55;20117;-73
2021/03/25 04:12:46;;;;;;;17.65;8.65;;;;;;;2.00;96.92;100851.00;2572279;55;20128;-74
2021/03/25 04:15:21;;;;;;;20.88;10.23;;;;;;;1.94;97.73;100851.25;2578043;55;20650;-75
2021/03/25 04:17:57;;;;;;;19.95;9.90;;;;;;;2.00;97.40;100856.25;2577455;55;20133;-75
2021/03/25 04:20:30;;;;;;;21.05;10.65;;;;;;;1.94;97.07;100845.97;2572194;55;20125;-74
2021/03/25 04:23:09;;;;;;;28.85;12.23;;;;;;;1.96;97.08;100859.09;2577992;55;20130;-74
2021/03/25 04:25:43;;;;;;;20.50;11.07;;;;;;;1.94;97.52;100861.78;2572374;55;20132;-74
2021/03/25 04:28:22;;;;;;;25.60;10.88;;;;;;;1.94;97.14;100854.72;2572613;55;20505;-74
2021/03/25 04:30:55;;;;;;;26.77;12.00;;;;;;;1.91;96.83;100856.63;2577659;55;20106;-75
2021/03/25 04:33:26;;;;;;;20.57;10.57;;;;;;;1.96;97.27;100857.31;2572499;55;20234;-75
2021/03/25 04:35:59;;;;;;;27.00;12.25;;;;;;;1.93;97.61;100855.62;2577518;55;20237;-75
2021/03/25 04:38:32;;;;;;;22.73;11.27;;;;;;;1.94;97.49;100861.78;2572501;55;20124;-74
2021/03/25 04:41:04;;;;;;;24.55;12.05;;;;;;;1.92;97.82;100858.34;2572474;55;20125;-73
2021/03/25 04:43:32;;;;;;;23.40;12.55;;;;;;;1.90;97.96;100863.66;2577707;55;20538;-74
2021/03/25 04:46:08;;;;;;;25.77;11.10;;;;;;;1.91;97.92;100860.09;2577177;55;20113;-74
2021/03/25 04:48:42;;;;;;;21.50;11.20;;;;;;;1.98;97.63;100863.34;2577645;55;20611;-74
2021/03/25 04:51:19;;;;;;;25.75;12.73;;;;;;;1.96;97.81;100864.34;2577490;55;20135;-74
2021/03/25 04:53:51;;;;;;;26.90;12.55;;;;;;;1.91;98.38;100860.09;2572386;55;20121;-73
2021/03/25 04:56:23;;;;;;;23.30;11.50;;;;;;;1.99;98.77;100865.06;2577243;55;20139;-73
2021/03/25 04:58:56;;;;;;;23.25;11.75;;;;;;;2.01;97.65;100868.53;2577412;55;20127;-74
2021/03/25 05:01:26;;;;;;;21.95;11.23;;;;;;;2.00;98.70;100861.53;2570736;55;20522;-74
2021/03/25 05:03:59;;;;;;;23.58;12.40;;;;;;;2.01;98.31;100860.63;2568551;55;20124;-73
2021/03/25 05:06:33;;;;;;;24.75;10.75;;;;;;;2.03;98.42;100858.78;2572255;55;20117;-74
2021/03/25 05:09:01;;;;;;;30.10;12.20;;;;;;;2.02;98.26;100854.44;2568522;55;20121;-74
2021/03/25 05:11:29;;;;;;;23.98;11.77;;;;;;;2.07;98.39;100860.37;2574144;55;20130;-73
2021/03/25 05:14:00;;;;;;;22.83;12.55;;;;;;;2.10;99.05;100854.16;2574964;55;20113;-74
2021/03/25 05:16:38;;;;;;;27.62;11.85;;;;;;;2.11;98.48;100844.50;2575056;55;20639;-74
2021/03/25 05:19:15;;;;;;;23.42;11.88;;;;;;;2.14;97.91;100855.75;2574309;55;20623;-74
2021/03/25 05:21:53;;;;;;;24.95;12.70;;;;;;;2.19;98.98;100852.94;2568325;55;20124;-74
2021/03/25 05:24:33;;;;;;;23.87;13.02;;;;;;;2.20;98.54;100852.03;2570236;55;20504;-74
2021/03/25 05:27:07;;;;;;;25.37;12.18;;;;;;;2.15;98.41;100843.47;2568499;55;20616;-73
2021/03/25 05:29:39;;;;;;;23.33;12.68;;;;;;;2.26;98.35;100861.50;2569458;55;20117;-74
2021/03/25 05:32:15;;;;;;;23.65;11.10;;;;;;;2.23;99.19;100854.56;2569304;55;20128;-74
2021/03/25 05:34:44;;;;;;;25.60;11.45;;;;;;;2.24;98.78;100853.63;2573499;55;20126;-74
2021/03/25 05:37:19;;;;;;;24.08;12.65;;;;;;;2.28;97.88;100847.31;2569058;55;20638;-73
2021/03/25 05:39:51;;;;;;;24.55;11.80;;;;;;;2.34;97.80;100852.38;2568517;55;20125;-73
2021/03/25 05:42:29;;;;;;;24.08;11.85;;;;;;;2.40;97.92;100859.16;2569328;55;20156;-74
2021/03/25 05:45:30;;;;;;;28.35;14.82;;;;;;;2.45;97.98;100862.47;2568875;55;20121;-74
2021/03/25 05:48:49;;;;;;;20.45;10.60;;;;;;;2.47;98.21;100860.66;2569248;55;20509;-73
2021/03/25 05:51:29;;;;;;;29.73;13.13;;;;;;;2.43;97.86;100861.69;2551454;56;20118;-74
2021/03/25 05:54:15;;;;;;;25.92;13.10;;;;;;;2.46;98.66;100860.72;2574816;55;20478;-75
2021/03/25 05:57:06;;;;;;;26.80;12.70;;;;;;;2.40;98.71;100853.03;2567801;55;20619;-73
2021/03/25 05:59:44;;;;;;;24.37;12.30;;;;;;;2.40;98.77;100863.56;2574612;55;20132;-74
2021/03/25 06:02:21;;;;;;;32.15;13.38;;;;;;;2.43;98.79;100863.47;2573661;55;20113;-72
2021/03/25 06:04:52;;;;;;;33.42;16.40;;;;;;;2.48;98.63;100872.03;2568529;55;20175;-71
2021/03/25 06:08:03;;;;;;;25.83;13.35;;;;;;;2.49;98.85;100855.31;2574463;55;20160;-71
2021/03/25 06:10:41;;;;;;;;;;;;;;;2.57;97.11;100871.69;2573941;55;20118;-70
2021/03/25 06:13:25;;;;;;;29.08;12.25;;;;;;;2.52;97.60;100863.13;2569069;55;20003;-70
2021/03/25 06:16:16;;;;;;;26.25;12.45;;;;;;;2.55;98.33;100870.87;2569872;55;20114;-72
2021/03/25 06:19:08;;;;;;;26.08;12.63;;;;;;;2.58;98.19;100864.66;2571633;55;20486;-69
2021/03/25 06:22:04;;;;;;;22.10;11.12;;;;;;;2.66;98.50;100866.97;2568508;55;20126;-71
2021/03/25 06:24:51;;;;;;;23.23;12.05;;;;;;;2.61;98.20;100861.88;2569717;55;20151;-69
2021/03/25 06:27:28;;;;;;;22.87;12.02;;;;;;;2.66;98.11;100869.59;2567313;55;20169;-72
2021/03/25 06:30:03;;;;;;;27.15;11.15;;;;;;;2.69;97.83;100858.94;2572457;55;20109;-72
2021/03/25 06:32:46;;;;;;;24.48;11.05;;;;;;;2.74;97.43;100860.47;2572302;55;20131;-72
2021/03/25 06:35:28;;;;;;;22.92;11.95;;;;;;;2.79;97.03;100862.91;2577320;55;20105;-71
2021/03/25 06:38:01;;;;;;;25.85;13.50;;;;;;;2.84;97.24;100857.47;2576098;55;20497;-71
2021/03/25 06:40:36;;;;;;;29.45;12.90;;;;;;;2.78;96.92;100856.81;2576703;55;20120;-71
2021/03/25 06:43:18;;;;;;;26.80;13.50;;;;;;;2.82;97.69;100854.91;2572214;55;20132;-70
2021/03/25 06:45:52;;;;;;;25.12;13.00;;;;;;;2.85;97.04;100853.91;2576791;55;20132;-70
2021/03/25 06:48:25;;;;;;;30.98;13.62;;;;;;;2.85;97.52;100860.03;2571759;55;20129;-70
2021/03/25 06:50:54;;;;;;;24.90;13.30;;;;;;;2.85;97.23;100854.78;2571635;55;20135;-70
2021/03/25 06:53:28;;;;;;;29.40;13.00;;;;;;;2.88;96.79;100859.91;2572011;55;20511;-70
2021/03/25 06:56:00;;;;;;;29.35;13.35;;;;;;;2.92;96.54;100855.38;2571634;55;20153;-70
2021/03/25 06:58:36;;;;;;;25.98;13.35;;;;;;;2.94;96.79;100863.22;2571797;55;20684;-70
2021/03/25 07:01:18;;;;;;;25.65;13.48;;;;;;;2.94;96.66;100857.97;2576987;55;20123;-70
2021/03/25 07:03:48;;;;;;;27.90;12.75;;;;;;;2.99;96.27;100861.25;2576962;55;20118;-70
2021/03/25 07:06:18;;;;;;;32.63;14.33;;;;;;;3.01;95.99;100859.44;2577209;55;20112;-70
2021/03/25 07:08:48;;;;;;;30.50;11.93;;;;;;;3.01;95.42;100860.28;2573006;55;20123;-72
2021/03/25 07:11:20;;;;;;;23.92;12.75;;;;;;;3.04;95.61;100864.56;2577505;55;20524;-72
2021/03/25 07:13:59;;;;;;;27.20;13.20;;;;;;;3.09;95.79;100854.66;2577800;55;20633;-72
2021/03/25 07:16:29;;;;;;;27.58;13.20;;;;;;;3.09;96.33;100856.47;2577924;55;20117;-70
2021/03/25 07:19:03;;;;;;;33.38;14.38;;;;;;;3.20;95.44;100854.25;2572887;55;20117;-70
2021/03/25 07:21:35;;;;;;;23.65;11.95;;;;;;;3.25;94.87;100854.03;2572689;55;20124;-70
2021/03/25 07:24:09;;;;;;;26.40;12.95;;;;;;;3.31;94.59;100857.28;2572555;55;20127;-72
2021/03/25 07:26:41;;;;;;;;;;;;;;;3.40;93.62;100850.75;2577894;55;20139;-71
2021/03/25 07:29:33;;;;;;;27.15;12.05;;;;;;;3.36;94.37;100864.13;2578688;55;19996;-72
2021/03/25 07:32:15;;;;;;;24.65;11.75;;;;;;;3.36;94.35;100858.84;2577390;55;20117;-72
2021/03/25 07:34:47;;;;;;;24.63;12.77;;;;;;;3.28;94.33;100846.00;2571781;55;20551;-72
2021/03/25 07:37:32;;;;;;;27.17;12.20;;;;;;;3.29;94.17;100858.25;2572586;55;20127;-72
2021/03/25 07:40:04;;;;;;;24.48;11.93;;;;;;;3.30;94.53;100867.87;2571669;55;20136;-72
2021/03/25 07:42:39;;;;;;;21.55;10.90;;;;;;;3.27;94.47;100862.75;2572693;55;20551;-72
2021/03/25 07:45:22;;;;;;;24.40;11.15;;;;;;;3.29;94.61;100866.16;2572618;55;20494;-72
2021/03/25 07:47:51;;;;;;;30.52;12.15;;;;;;;3.24;94.29;100866.34;2571276;55;20133;-72
2021/03/25 07:50:28;;;;;;;24.85;11.63;;;;;;;3.26;94.73;100864.53;2572253;55;20556;-71
2021/03/25 07:52:57;;;;;;;24.75;11.93;;;;;;;3.24;94.56;100876.06;2572759;55;20135;-70
2021/03/25 07:55:31;;;;;;;26.60;11.35;;;;;;;3.20;95.25;100870.91;2571792;55;20548;-70
2021/03/25 07:57:59;;;;;;;26.60;12.57;;;;;;;3.16;95.00;100884.31;2572088;55;20140;-70
2021/03/25 08:00:33;;;;;;;26.87;12.27;;;;;;;3.15;95.49;100878.16;2571519;55;20121;-70
2021/03/25 08:03:15;;;;;;;25.35;11.50;;;;;;;3.18;95.56;100883.28;2571824;55;20519;-70
2021/03/25 08:05:46;;;;;;;25.17;12.48;;;;;;;3.14;94.90;100875.56;2572847;55;20121;-71
2021/03/25 08:08:23;;;;;;;26.42;12.65;;;;;;;3.23;95.32;100884.91;2572360;55;20121;-70
2021/03/25 08:11:06;;;;;;;24.45;11.65;;;;;;;3.20;95.59;100878.81;2571918;55;20136;-70
2021/03/25 08:13:36;;;;;;;24.23;11.23;;;;;;;3.20;95.35;100876.19;2572578;55;20122;-70
2021/03/25 08:16:08;;;;;;;20.73;11.63;;;;;;;3.19;95.99;100879.75;2572170;55;20130;-70
2021/03/25 08:19:25;;;;;;;29.33;14.30;;;;;;;3.29;96.01;100879.34;2571607;55;20124;-70
2021/03/25 08:22:05;;;;;;;25.92;12.05;;;;;;;3.30;95.49;100878.44;2559475;55;20110;-70
2021/03/25 08:25:06;;;;;;;34.33;12.43;;;;;;;3.36;95.11;100872.91;2572366;55;20609;-71
2021/03/25 08:27:51;;;;;;;27.23;12.65;;;;;;;3.48;94.84;100875.00;2572444;55;20117;-72
2021/03/25 08:30:51;;;;;;;33.55;11.85;;;;;;;3.62;94.52;100884.13;2572646;55;20121;-72
2021/03/25 08:33:33;;;;;;;23.83;12.13;;;;;;;3.66;94.32;100877.78;2571709;55;20122;-72
2021/03/25 08:36:13;;;;;;;21.85;13.23;;;;;;;3.72;94.30;100877.53;2571679;55;20121;-72
2021/03/25 08:39:04;;;;;;;26.58;13.98;;;;;;;3.84;93.48;100878.75;2571853;55;20135;-72
2021/03/25 08:41:41;;;;;;;28.67;13.93;;;;;;;3.84;93.52;100886.66;2572052;55;20650;-72
2021/03/25 08:44:20;;;;;;;32.20;13.35;;;;;;;3.84;93.67;100888.47;2572651;55;20110;-72
2021/03/25 08:46:55;;;;;;;25.65;12.75;;;;;;;3.96;93.98;100887.91;2572188;55;20143;-71
2021/03/25 08:49:32;;;;;;;33.97;14.38;;;;;;;3.96;93.26;100893.19;2572286;55;20139;-72
2021/03/25 08:52:05;;;;;;;28.27;13.30;;;;;;;3.89;94.14;100887.34;2571983;55;20114;-71
2021/03/25 08:54:40;;;;;;;29.83;13.48;;;;;;;3.89;93.47;100887.34;2571463;55;20492;-71
2021/03/25 08:57:16;;;;;;;29.73;14.00;;;;;;;3.98;94.01;100898.41;2572219;55;20129;-70
2021/03/25 08:59:53;;;;;;;31.52;12.80;;;;;;;3.99;94.21;100893.06;2572788;55;20128;-71
2021/03/25 09:02:30;;;;;;;26.02;13.05;;;;;;;4.00;93.83;100892.13;2571992;55;20544;-70
2021/03/25 09:05:07;;;;;;;34.40;12.65;;;;;;;4.07;93.71;100895.38;2571724;55;20130;-70
2021/03/25 09:07:40;;;;;;;27.75;13.02;;;;;;;4.07;93.30;100886.56;2571362;55;20114;-70
2021/03/25 09:10:16;;;;;;;27.95;13.07;;;;;;;4.18;92.93;100884.28;2571628;55;20132;-71
2021/03/25 09:12:48;;;;;;;27.02;12.18;;;;;;;4.20;92.77;100882.44;2571966;55;20478;-70
2021/03/25 09:15:20;;;;;;;26.67;12.32;;;;;;;4.24;92.98;100873.47;2572136;55;20625;-71
2021/03/25 09:17:56;;;;;;;30.42;12.95;;;;;;;4.39;92.26;100878.94;2572340;55;20121;-72
2021/03/25 09:20:28;;;;;;;19.10;8.93;;;;;;;4.53;91.49;100879.19;2572563;55;20110;-72
2021/03/25 09:23:00;;;;;;;25.15;12.77;;;;;;;4.47;92.04;100882.09;2571995;55;20121;-72
2021/03/25 09:25:38;;;;;;;26.35;13.02;;;;;;;4.50;91.85;100879.28;2571414;55;20121;-72
2021/03/25 09:28:17;;;;;;;27.37;14.80;;;;;;;4.44;91.86;100891.00;2571615;55;20133;-72
2021/03/25 09:31:03;;;;;;;27.05;14.10;;;;;;;4.44;91.79;100893.66;2571624;55;20135;-72
2021/03/25 09:33:48;;;;;;;24.35;12.73;;;;;;;4.54;92.55;100891.47;2572104;55;20109;-72
2021/03/25 09:36:41;;;;;;;26.85;12.60;;;;;;;4.65;92.05;100892.72;2572590;55;20129;-72
2021/03/25 09:39:27;;;;;;;26.83;14.20;;;;;;;4.60;91.76;100888.50;2570965;55;20113;-73
2021/03/25 09:41:59;;;;;;;29.95;13.32;;;;;;;4.58;91.83;100903.59;2572560;55;20121;-72
2021/03/25 09:44:35;;;;;;;29.95;14.48;;;;;;;4.60;92.02;100901.72;2572098;55;20490;-72
2021/03/25 09:47:20;;;;;;;32.17;14.48;;;;;;;4.68;92.23;100887.28;2572364;55;20680;-72
2021/03/25 09:49:54;;;;;;;26.92;14.55;;;;;;;4.62;92.62;100892.88;2572312;55;20128;-72
2021/03/25 09:52:28;;;;;;;26.48;12.88;;;;;;;4.69;92.02;100889.00;2571887;55;20114;-71
2021/03/25 09:55:20;;;;;;;28.02;15.20;;;;;;;4.81;91.72;100887.56;2572214;55;20124;-71
2021/03/25 09:57:51;;;;;;;25.60;14.45;;;;;;;4.87;91.78;100880.19;2572199;55;20128;-72
2021/03/25 10:00:54;;;;;;;26.35;13.18;;;;;;;5.07;91.38;100878.34;2571822;55;20608;-71
2021/03/25 10:03:58;;;;;;;31.33;13.70;;;;;;;5.23;90.68;100888.19;2572316;55;20113;-72
2021/03/25 10:07:12;;;;;;;22.08;12.90;;;;;;;5.41;89.55;100876.69;2570383;55;20642;-71
2021/03/25 10:10:00;;;;;;;21.67;11.85;;;;;;;5.50;89.20;100874.47;2559734;55;20118;-72
2021/03/25 10:12:52;;;;;;;22.00;11.82;;;;;;;5.56;87.78;100875.03;2571120;55;20503;-71
2021/03/25 10:15:51;;;;;;;26.17;11.70;;;;;;;5.74;87.41;100872.34;2571155;55;20110;-72
2021/03/25 10:18:56;;;;;;;26.80;12.20;;;;;;;6.08;85.97;100864.44;2572272;55;20299;-72
2021/03/25 10:22:01;;;;;;;27.08;12.20;;;;;;;6.32;84.27;100854.28;2572147;55;20509;-72
2021/03/25 10:24:39;;;;;;;24.10;12.80;;;;;;;6.36;84.32;100862.94;2571918;55;20633;-71
2021/03/25 10:27:30;;;;;;;24.50;12.25;;;;;;;6.72;83.61;100853.87;2571955;55;20692;-72
2021/03/25 10:30:05;;;;;;;23.17;12.88;;;;;;;7.03;80.83;100862.72;2571808;55;20128;-72
2021/03/25 10:32:42;;;;;;;22.40;12.70;;;;;;;7.23;80.08;100864.19;2571782;55;20125;-71
2021/03/25 10:35:25;;;;;;;19.23;10.88;;;;;;;7.34;79.24;100862.72;2571339;55;20619;-72
2021/03/25 10:38:01;;;;;;;22.92;12.00;;;;;;;7.31;79.06;100868.22;2571717;55;20143;-72
2021/03/25 10:40:33;;;;;;;21.02;10.48;;;;;;;7.24;78.87;100865.06;2572090;55;20125;-72
2021/03/25 10:43:14;;;;;;;21.02;10.88;;;;;;;7.20;79.37;100858.22;2572268;55;20125;-72
2021/03/25 10:45:52;;;;;;;19.83;11.50;;;;;;;7.14;79.01;100847.97;2572742;55;20136;-72
2021/03/25 10:48:28;;;;;;;20.45;10.32;;;;;;;7.07;78.97;100864.25;2572733;55;20117;-71
2021/03/25 10:51:04;;;;;;;16.00;9.18;;;;;;;6.98;79.29;100856.81;2571919;55;20692;-71
2021/03/25 10:53:37;;;;;;;18.95;10.00;;;;;;;6.95;79.38;100854.34;2572738;55;20623;-71
2021/03/25 10:56:14;;;;;;;16.00;9.40;;;;;;;6.88;79.62;100845.03;2572902;55;20114;-71
2021/03/25 10:58:46;;;;;;;18.45;9.63;;;;;;;6.80;79.93;100856.91;2572620;55;20120;-70
2021/03/25 11:01:22;;;;;;;17.85;10.10;;;;;;;6.73;80.30;100866.19;2572054;55;20106;-71
2021/03/25 11:03:51;;;;;;;17.27;9.88;;;;;;;6.64;80.90;100856.94;2571870;55;20126;-71
2021/03/25 11:06:24;;;;;;;16.50;9.48;;;;;;;6.68;80.96;100852.31;2572718;55;20118;-71
2021/03/25 11:08:54;;;;;;;18.25;9.88;;;;;;;6.72;80.36;100853.00;2571996;55;20615;-71
2021/03/25 11:11:26;;;;;;;15.18;9.35;;;;;;;6.81;80.78;100842.75;2572813;55;20120;-71
2021/03/25 11:14:01;;;;;;;17.40;9.32;;;;;;;6.93;80.26;100846.47;2572412;55;20122;-71
2021/03/25 11:16:30;;;;;;;18.62;9.63;;;;;;;7.01;79.92;100846.00;2571698;55;20135;-71
2021/03/25 11:19:10;;;;;;;15.38;9.65;;;;;;;7.21;79.51;100857.25;2572547;55;20140;-72
2021/03/25 11:21:40;;;;;;;15.77;8.45;;;;;;;7.36;78.81;100853.72;2572625;55;20124;-72
2021/03/25 11:24:26;;;;;;;16.95;8.82;;;;;;;7.47;78.46;100849.56;2573106;55;20121;-72
2021/03/25 11:26:58;;;;;;;15.75;9.15;;;;;;;7.38;78.29;100861.59;2572069;55;20144;-72
2021/03/25 11:29:32;;;;;;;18.80;9.43;;;;;;;7.35;78.38;100856.44;2572421;55;20619;-72
2021/03/25 11:32:16;;;;;;;17.10;9.18;;;;;;;7.37;78.52;100859.91;2573046;55;20120;-72
2021/03/25 11:34:51;;;;;;;15.40;8.48;;;;;;;7.25;78.33;100856.16;2572601;55;20631;-72
2021/03/25 11:37:31;;;;;;;16.35;9.00;;;;;;;7.28;78.83;100850.66;2572456;55;20118;-72
2021/03/25 11:40:10;;;;;;;19.40;9.45;;;;;;;7.38;78.03;100840.37;2572770;55;20114;-72
2021/03/25 11:42:37;;;;;;;15.77;8.77;;;;;;;7.44;77.38;100850.59;2572457;55;20117;-72
2021/03/25 11:45:37;;;;;;;17.65;8.90;;;;;;;7.63;77.81;100853.00;2571931;55;20121;-72
2021/03/25 11:48:18;;;;;;;15.25;7.40;;;;;;;7.63;77.42;100850.34;2572734;55;20504;-72
2021/03/25 11:50:51;;;;;;;17.20;8.80;;;;;;;7.59;76.69;100848.81;2572300;55;20681;-72
2021/03/25 11:53:41;;;;;;;15.68;8.57;;;;;;;7.70;77.32;100842.00;2572057;55;20129;-72
2021/03/25 11:56:30;;;;;;;17.90;8.90;;;;;;;7.80;76.11;100840.47;2571657;55;20117;-72
2021/03/25 11:59:04;;;;;;;14.18;8.23;;;;;;;7.79;75.29;100834.34;2571376;55;20126;-71
2021/03/25 12:01:35;;;;;;;17.08;8.88;;;;;;;7.82;75.04;100838.62;2571862;55;20512;-72
2021/03/25 12:04:06;;;;;;;15.15;7.93;;;;;;;7.85;75.24;100835.75;2571750;55;20489;-72
2021/03/25 12:06:35;;;;;;;14.48;7.62;;;;;;;8.06;74.56;100827.37;2572392;55;20140;-72
2021/03/25 12:09:10;;;;;;;19.55;7.75;;;;;;;8.15;74.06;100834.78;2571593;55;20523;-72
2021/03/25 12:11:42;;;;;;;18.17;8.57;;;;;;;8.16;73.71;100836.50;2572534;55;20125;-72
2021/03/25 12:14:15;;;;;;;12.88;7.75;;;;;;;8.07;73.64;100843.25;2571417;55;20129;-72